Argyle Township, Maine
Current Conditions -  °F | °C
As of 8:53 PM on Sunday 25 Jan 2015 (Local Time) from KBGR Reporting Station
Clear Clear  
Wind Chill:   Ceiling: Unl
Heat Index:   Visibility: 10mi
Dew Point: -6°   Wind: 5mph
Humidity: 53%   Direction: 250°WSW
Pressure: 29.89"   Gusts: NA
Location:  45.0236°N, 68.7394°W
Report Text: KBGR 260153Z 25004KT 10SM CLR M13/M21 A2989 RMK AO2 SLP125 T11331211
Loading
Personal Weather Stations






























Interactive Weather Map New forecast layout! Learn more

10-Day Weather Forecast

Advertisements
Track Severe Weather on mobile